Ilford, Canada
Current Conditions -  °F | °C
As of 9:00 PM on Tuesday 21 Oct 2014 (Local Time) from CYGX Reporting Station
Clear Clear  
Wind Chill: 50°   Ceiling: Unl
Heat Index: 50°   Visibility: 15mi
Dew Point: 39°   Wind: 12mph
Humidity: 66%   Direction: 190°S
Pressure: 29.66"   Gusts: NA
Location:  56.04°N, 95.58°W
Report Text: CYGX 220200Z 19010KT 15SM SKC 10/04 A2966 RMK SLP052
Loading
Personal Weather Stations






























Interactive Weather Map New forecast layout! Learn more

10-Day Weather Forecast

Advertisements
Track Severe Weather on mobile